createdAt,value
2023-05-16T00:01:48.283Z,16.17
2023-05-16T00:04:15.129Z,16.15
2023-05-16T00:06:41.893Z,16.13
2023-05-16T00:09:08.506Z,16.11
2023-05-16T00:11:35.238Z,16.09
2023-05-16T00:14:02.686Z,16.08
2023-05-16T00:16:30.341Z,16.06
2023-05-16T00:19:00.933Z,16.05
2023-05-16T00:21:28.152Z,16.04
2023-05-16T00:23:54.853Z,16.02
2023-05-16T00:26:21.804Z,16.01
2023-05-16T00:28:48.870Z,15.99
2023-05-16T00:31:15.736Z,15.97
2023-05-16T00:33:42.628Z,15.95
2023-05-16T00:36:09.477Z,15.94
2023-05-16T00:38:36.135Z,15.92
2023-05-16T00:41:02.774Z,15.89
2023-05-16T00:43:29.724Z,15.88
2023-05-16T00:45:58.133Z,15.86
2023-05-16T00:48:25.102Z,15.84
2023-05-16T00:50:52.985Z,15.83
2023-05-16T00:53:20.112Z,15.81
2023-05-16T00:55:47.123Z,15.80
2023-05-16T00:58:13.905Z,15.78
2023-05-16T01:00:40.573Z,15.75
2023-05-16T01:03:07.499Z,15.73
2023-05-16T01:05:34.336Z,15.72
2023-05-16T01:08:01.066Z,15.70
2023-05-16T01:10:33.162Z,15.69
2023-05-16T01:13:16.175Z,15.67
2023-05-16T01:15:53.263Z,15.66
2023-05-16T01:18:31.471Z,15.64
2023-05-16T01:21:03.969Z,15.63
2023-05-16T01:23:43.589Z,15.62
2023-05-16T01:26:20.198Z,15.62
2023-05-16T01:28:47.041Z,15.61
2023-05-16T01:31:13.748Z,15.61
2023-05-16T01:33:40.498Z,15.60
2023-05-16T01:36:10.443Z,15.60
2023-05-16T01:38:41.954Z,15.60
2023-05-16T01:41:10.861Z,15.59
2023-05-16T01:43:47.046Z,15.59
2023-05-16T01:46:26.034Z,15.58
2023-05-16T01:49:01.559Z,15.57
2023-05-16T01:51:30.811Z,15.56
2023-05-16T01:54:01.463Z,15.55
2023-05-16T01:56:28.125Z,15.53
2023-05-16T01:58:54.845Z,15.51
2023-05-16T02:01:21.573Z,15.49
2023-05-16T02:03:48.243Z,15.48
2023-05-16T02:06:15.092Z,15.46
2023-05-16T02:08:41.774Z,15.44
2023-05-16T02:11:08.922Z,15.42
2023-05-16T02:13:35.669Z,15.41
2023-05-16T02:16:04.446Z,15.39
2023-05-16T02:18:31.318Z,15.37
2023-05-16T02:20:58.322Z,15.35
2023-05-16T02:23:25.055Z,15.33
2023-05-16T02:25:53.667Z,15.31
2023-05-16T02:28:22.434Z,15.30
2023-05-16T02:30:57.700Z,15.28
2023-05-16T02:33:26.997Z,15.26
2023-05-16T02:35:54.356Z,15.25
2023-05-16T02:38:21.252Z,15.23
2023-05-16T02:40:48.807Z,15.23
2023-05-16T02:43:15.724Z,15.21
2023-05-16T02:45:42.562Z,15.18
2023-05-16T02:48:09.582Z,15.17
2023-05-16T02:50:37.619Z,15.16
2023-05-16T02:53:04.774Z,15.14
2023-05-16T02:55:31.529Z,15.12
2023-05-16T02:57:58.141Z,15.11
2023-05-16T03:00:25.024Z,15.10
2023-05-16T03:02:52.038Z,15.09
2023-05-16T03:05:19.039Z,15.09
2023-05-16T03:07:45.678Z,15.08
2023-05-16T03:10:12.405Z,15.07
2023-05-16T03:12:39.056Z,15.06
2023-05-16T03:15:06.766Z,15.06
2023-05-16T03:17:34.025Z,15.06
2023-05-16T03:20:02.368Z,15.07
2023-05-16T03:22:29.022Z,15.06
2023-05-16T03:24:56.651Z,15.06
2023-05-16T03:27:23.289Z,15.07
2023-05-16T03:29:49.923Z,15.07
2023-05-16T03:32:17.078Z,15.06
2023-05-16T03:34:43.734Z,15.06
2023-05-16T03:37:11.041Z,15.06
2023-05-16T03:39:37.864Z,15.07
2023-05-16T03:42:04.946Z,15.07
2023-05-16T03:44:31.695Z,15.08
2023-05-16T03:46:58.796Z,15.09
2023-05-16T03:49:28.130Z,15.09
2023-05-16T03:51:55.155Z,15.10
2023-05-16T03:54:22.339Z,15.09
2023-05-16T03:56:48.973Z,15.09
2023-05-16T03:59:15.767Z,15.09
2023-05-16T04:01:42.613Z,15.09
2023-05-16T04:04:09.414Z,15.10
2023-05-16T04:06:36.546Z,15.11
2023-05-16T04:09:03.565Z,15.11
2023-05-16T04:11:30.878Z,15.12
2023-05-16T04:13:58.929Z,15.13
2023-05-16T04:16:25.802Z,15.13
2023-05-16T04:18:53.015Z,15.13
2023-05-16T04:21:19.743Z,15.14
2023-05-16T04:23:46.461Z,15.15
2023-05-16T04:26:14.541Z,15.15
2023-05-16T04:28:41.711Z,15.17
2023-05-16T04:33:35.022Z,15.19
2023-05-16T04:36:01.701Z,15.20
2023-05-16T04:38:28.443Z,15.21
2023-05-16T04:40:55.097Z,15.25
2023-05-16T04:43:21.776Z,15.27
2023-05-16T04:45:48.745Z,15.28
2023-05-16T04:48:15.539Z,15.29
2023-05-16T04:50:42.531Z,15.31
2023-05-16T04:53:09.341Z,15.33
2023-05-16T04:55:35.952Z,15.34
2023-05-16T04:58:02.809Z,15.35
2023-05-16T05:00:29.769Z,15.36
2023-05-16T05:02:56.938Z,15.37
2023-05-16T05:05:23.844Z,15.37
2023-05-16T05:07:50.592Z,15.37
2023-05-16T05:10:17.365Z,15.34
2023-05-16T05:12:44.014Z,15.31
2023-05-16T05:15:10.879Z,15.28
2023-05-16T05:17:38.141Z,15.26
2023-05-16T05:20:07.020Z,15.25
2023-05-16T05:22:33.996Z,15.22
2023-05-16T05:25:00.757Z,15.20
2023-05-16T05:27:27.790Z,15.18
2023-05-16T05:29:54.487Z,15.17
2023-05-16T05:32:21.251Z,15.14
2023-05-16T05:34:48.100Z,15.12
2023-05-16T05:37:14.919Z,15.10
2023-05-16T05:39:41.532Z,15.08
2023-05-16T05:42:08.208Z,15.06
2023-05-16T05:44:35.111Z,15.04
2023-05-16T05:47:01.734Z,15.01
2023-05-16T05:49:28.398Z,14.99
2023-05-16T05:51:55.289Z,14.96
2023-05-16T05:54:23.553Z,14.95
2023-05-16T05:56:50.279Z,14.93
2023-05-16T05:59:17.051Z,14.90
2023-05-16T06:01:46.896Z,14.86
2023-05-16T06:04:13.551Z,14.82
2023-05-16T06:06:40.369Z,14.78
2023-05-16T06:09:07.288Z,14.74
2023-05-16T06:11:33.945Z,14.70
2023-05-16T06:14:00.892Z,14.68
2023-05-16T06:16:27.669Z,14.66
2023-05-16T06:18:54.503Z,14.65
2023-05-16T06:21:21.489Z,14.63
2023-05-16T06:23:48.278Z,14.61
2023-05-16T06:26:14.993Z,14.61
2023-05-16T06:28:41.770Z,14.59
2023-05-16T06:31:08.464Z,14.58
2023-05-16T06:33:35.179Z,14.57
2023-05-16T06:39:01.575Z,14.62
2023-05-16T06:41:28.569Z,14.63
2023-05-16T06:43:55.223Z,14.68
2023-05-16T06:46:22.215Z,14.72
2023-05-16T06:48:49.060Z,14.77
2023-05-16T06:51:16.209Z,14.83
2023-05-16T06:53:42.944Z,14.88
2023-05-16T06:56:09.650Z,14.93
2023-05-16T06:58:36.749Z,15.01
2023-05-16T07:01:03.669Z,15.09
2023-05-16T07:03:31.980Z,15.17
2023-05-16T07:05:58.989Z,15.24
2023-05-16T07:08:26.160Z,15.29
2023-05-16T07:10:52.823Z,15.35
2023-05-16T07:13:19.592Z,15.39
2023-05-16T07:15:46.449Z,15.43
2023-05-16T07:18:13.217Z,15.46
2023-05-16T07:20:39.943Z,15.49
2023-05-16T07:23:06.880Z,15.51
2023-05-16T07:25:33.766Z,15.54
2023-05-16T07:28:01.151Z,15.56
2023-05-16T07:30:28.103Z,15.58
2023-05-16T07:32:54.918Z,15.59
2023-05-16T07:35:22.066Z,15.63
2023-05-16T07:37:48.828Z,15.67
2023-05-16T07:40:15.713Z,15.69
2023-05-16T07:42:42.376Z,15.72
2023-05-16T07:45:09.945Z,15.74
2023-05-16T07:47:36.717Z,15.74
2023-05-16T07:50:03.556Z,15.78
2023-05-16T07:52:30.382Z,15.80
2023-05-16T07:54:57.628Z,15.82
2023-05-16T07:57:25.314Z,15.82
2023-05-16T07:59:52.753Z,15.82
2023-05-16T08:02:19.766Z,15.82
2023-05-16T08:04:47.029Z,15.83
2023-05-16T08:07:13.930Z,15.84
2023-05-16T08:09:40.723Z,15.86
2023-05-16T08:12:08.015Z,15.88
2023-05-16T08:14:34.940Z,15.92
2023-05-16T08:17:01.832Z,15.95
2023-05-16T08:19:29.641Z,15.99
2023-05-16T08:21:56.771Z,16.03
2023-05-16T08:24:23.698Z,16.07
2023-05-16T08:26:50.741Z,16.13
2023-05-16T08:29:17.745Z,16.19
2023-05-16T08:31:44.664Z,16.26
2023-05-16T08:34:12.240Z,16.34
2023-05-16T08:36:39.061Z,16.43
2023-05-16T08:39:06.102Z,16.53
2023-05-16T08:41:33.054Z,16.63
2023-05-16T08:43:59.856Z,16.76
2023-05-16T08:46:26.814Z,16.87
2023-05-16T08:48:53.940Z,16.98
2023-05-16T08:51:20.898Z,17.06
2023-05-16T08:53:53.104Z,17.12
2023-05-16T08:56:19.998Z,17.20
2023-05-16T08:58:46.678Z,17.28
2023-05-16T09:01:13.763Z,17.35
2023-05-16T09:03:40.986Z,17.42
2023-05-16T09:06:08.444Z,17.46
2023-05-16T09:08:35.583Z,17.48
2023-05-16T09:11:05.655Z,17.49
2023-05-16T09:13:32.656Z,17.51
2023-05-16T09:16:16.272Z,17.52
2023-05-16T09:18:44.231Z,17.53
2023-05-16T09:21:11.646Z,17.57
2023-05-16T09:23:38.367Z,17.63
2023-05-16T09:26:05.503Z,17.68
2023-05-16T09:28:32.260Z,17.72
2023-05-16T09:31:00.050Z,17.75
2023-05-16T09:33:29.968Z,17.80
2023-05-16T09:36:00.678Z,17.84
2023-05-16T09:38:28.001Z,17.86
2023-05-16T09:40:55.259Z,17.87
2023-05-16T09:43:26.287Z,17.86
2023-05-16T09:45:53.094Z,17.85
2023-05-16T09:48:21.165Z,17.81
2023-05-16T09:50:55.141Z,17.74
2023-05-16T09:53:28.871Z,17.69
2023-05-16T09:56:03.528Z,17.66
2023-05-16T09:58:33.363Z,17.64
2023-05-16T10:01:00.189Z,17.63
2023-05-16T10:03:27.372Z,17.61
2023-05-16T10:05:54.831Z,17.60
2023-05-16T10:08:25.851Z,17.58
2023-05-16T10:10:55.704Z,17.56
2023-05-16T10:13:30.934Z,17.54
2023-05-16T10:15:59.027Z,17.53
2023-05-16T10:18:35.053Z,17.53
2023-05-16T10:21:10.423Z,17.54
2023-05-16T10:23:38.458Z,17.51
2023-05-16T10:26:06.197Z,17.49
2023-05-16T10:28:32.995Z,17.45
2023-05-16T10:30:59.816Z,17.40
2023-05-16T10:33:26.745Z,17.38
2023-05-16T10:35:53.534Z,17.34
2023-05-16T10:38:20.529Z,17.31
2023-05-16T10:40:47.468Z,17.30
2023-05-16T10:43:30.692Z,17.29
2023-05-16T10:46:03.001Z,17.30
2023-05-16T10:48:37.025Z,17.32
2023-05-16T10:51:05.628Z,17.36
2023-05-16T10:53:34.133Z,17.42
2023-05-16T10:56:04.019Z,17.50
2023-05-16T10:58:38.475Z,17.60
2023-05-16T11:01:18.030Z,17.71
2023-05-16T11:03:57.259Z,17.82
2023-05-16T11:06:27.862Z,17.91
2023-05-16T11:09:05.704Z,17.98
2023-05-16T11:11:51.752Z,18.06
2023-05-16T11:14:25.523Z,18.12
2023-05-16T11:17:09.429Z,18.14
2023-05-16T11:19:40.603Z,18.12
2023-05-16T11:22:08.575Z,18.10
2023-05-16T11:24:36.537Z,18.08
2023-05-16T11:27:04.317Z,18.06
2023-05-16T11:29:35.757Z,18.03
2023-05-16T11:32:04.298Z,18.03
2023-05-16T11:34:37.713Z,18.04
2023-05-16T11:37:04.801Z,18.05
2023-05-16T11:39:32.639Z,18.06
2023-05-16T11:41:59.437Z,18.06
2023-05-16T11:44:26.484Z,18.05
2023-05-16T11:46:53.268Z,18.05
2023-05-16T11:49:19.996Z,18.05
2023-05-16T11:51:46.843Z,18.03
2023-05-16T11:54:13.601Z,18.03
2023-05-16T11:56:43.209Z,18.02
2023-05-16T11:59:11.207Z,18.00
2023-05-16T12:01:39.312Z,17.98
2023-05-16T12:04:10.889Z,17.95
2023-05-16T12:06:38.475Z,17.94
2023-05-16T12:09:10.689Z,17.93
2023-05-16T12:11:38.578Z,17.93
2023-05-16T12:14:06.468Z,17.94
2023-05-16T12:16:33.346Z,17.94
2023-05-16T12:19:02.077Z,17.94
2023-05-16T12:21:28.808Z,17.95
2023-05-16T12:23:56.618Z,17.96
2023-05-16T12:26:30.828Z,17.96
2023-05-16T12:29:00.962Z,17.98
2023-05-16T12:31:32.263Z,18.01
2023-05-16T12:33:59.713Z,18.06
2023-05-16T12:36:26.575Z,18.11
2023-05-16T12:38:53.627Z,18.16
2023-05-16T12:41:21.765Z,18.21
2023-05-16T12:43:51.863Z,18.25
2023-05-16T12:46:19.858Z,18.27
2023-05-16T12:48:48.258Z,18.29
2023-05-16T12:51:17.986Z,18.33
2023-05-16T12:53:57.533Z,18.35
2023-05-16T12:56:28.579Z,18.34
2023-05-16T12:58:55.345Z,18.35
2023-05-16T13:01:22.152Z,18.36
2023-05-16T13:03:48.967Z,18.38
2023-05-16T13:06:16.046Z,18.42
2023-05-16T13:08:42.752Z,18.47
2023-05-16T13:11:09.493Z,18.52
2023-05-16T13:13:37.317Z,18.58
2023-05-16T13:16:04.465Z,18.64
2023-05-16T13:18:31.650Z,18.70
2023-05-16T13:20:58.558Z,18.77
2023-05-16T13:23:25.276Z,18.84
2023-05-16T13:25:53.141Z,18.90
2023-05-16T13:28:19.907Z,18.93
2023-05-16T13:30:46.828Z,18.94
2023-05-16T13:33:13.759Z,18.97
2023-05-16T13:35:40.659Z,19.00
2023-05-16T13:38:07.433Z,19.01
2023-05-16T13:40:34.271Z,19.03
2023-05-16T13:43:01.844Z,19.05
2023-05-16T13:45:28.991Z,19.09
2023-05-16T13:47:55.996Z,19.14
2023-05-16T13:50:22.766Z,19.16
2023-05-16T13:52:49.436Z,19.19
2023-05-16T13:55:16.173Z,19.21
2023-05-16T13:57:42.930Z,19.25
2023-05-16T14:00:43.588Z,19.28
2023-05-16T14:02:59.462Z,19.32
2023-05-16T14:05:26.446Z,19.35
2023-05-16T14:07:53.370Z,19.37
2023-05-16T14:10:20.152Z,19.37
2023-05-16T14:12:46.814Z,19.36
2023-05-16T14:15:13.543Z,19.34
2023-05-16T14:17:40.388Z,19.31
2023-05-16T14:20:10.753Z,19.27
2023-05-16T14:22:37.703Z,19.23
2023-05-16T14:25:06.317Z,19.19
2023-05-16T14:27:33.075Z,19.16
2023-05-16T14:29:59.798Z,19.12
2023-05-16T14:32:27.088Z,19.09
2023-05-16T14:34:54.021Z,19.07
2023-05-16T14:37:21.024Z,19.05
2023-05-16T14:39:50.184Z,19.04
2023-05-16T14:42:18.161Z,19.04
2023-05-16T14:44:44.888Z,19.03
2023-05-16T14:47:11.814Z,19.02
2023-05-16T14:49:38.746Z,19.01
2023-05-16T14:52:06.446Z,19.01
2023-05-16T14:54:33.497Z,18.99
2023-05-16T14:57:01.136Z,18.98
2023-05-16T14:59:28.007Z,18.96
2023-05-16T15:01:55.004Z,18.94
2023-05-16T15:04:22.138Z,18.93
2023-05-16T15:06:49.012Z,18.92
2023-05-16T15:09:15.812Z,18.92
2023-05-16T15:11:42.586Z,18.90
2023-05-16T15:14:09.271Z,18.88
2023-05-16T15:16:36.449Z,18.87
2023-05-16T15:19:03.357Z,18.85
2023-05-16T15:21:31.622Z,18.84
2023-05-16T15:23:58.868Z,18.83
2023-05-16T15:26:25.688Z,18.83
2023-05-16T15:28:52.449Z,18.83
2023-05-16T15:31:19.228Z,18.83
2023-05-16T15:33:48.268Z,18.85
2023-05-16T15:36:15.318Z,18.84
2023-05-16T15:38:45.378Z,18.84
2023-05-16T15:41:18.727Z,18.84
2023-05-16T15:43:53.531Z,18.82
2023-05-16T15:46:20.370Z,18.82
2023-05-16T15:48:47.071Z,18.80
2023-05-16T15:51:15.650Z,18.79
2023-05-16T15:53:42.366Z,18.78
2023-05-16T15:56:09.650Z,18.77
2023-05-16T15:58:36.423Z,18.76
2023-05-16T16:01:03.344Z,18.74
2023-05-16T16:03:30.263Z,18.73
2023-05-16T16:05:57.242Z,18.71
2023-05-16T16:08:24.050Z,18.67
2023-05-16T16:10:51.479Z,18.64
2023-05-16T16:13:18.180Z,18.60
2023-05-16T16:15:44.978Z,18.57
2023-05-16T16:18:13.885Z,18.52
2023-05-16T16:20:40.948Z,18.49
2023-05-16T16:23:08.252Z,18.45
2023-05-16T16:25:34.907Z,18.42
2023-05-16T16:28:01.744Z,18.39
2023-05-16T16:30:28.406Z,18.37
2023-05-16T16:32:55.187Z,18.35
2023-05-16T16:35:24.628Z,18.33
2023-05-16T16:38:05.624Z,18.30
2023-05-16T16:40:33.366Z,18.27
2023-05-16T16:43:00.144Z,18.25
2023-05-16T16:45:27.147Z,18.22
2023-05-16T16:47:54.272Z,18.20
2023-05-16T16:50:21.317Z,18.18
2023-05-16T16:52:48.054Z,18.17
2023-05-16T16:55:15.049Z,18.15
2023-05-16T16:57:42.457Z,18.13
2023-05-16T17:00:11.458Z,18.10
2023-05-16T17:02:38.660Z,18.07
2023-05-16T17:05:06.199Z,18.04
2023-05-16T17:07:33.127Z,18.02
2023-05-16T17:10:01.193Z,17.99
2023-05-16T17:12:29.045Z,17.96
2023-05-16T17:14:57.320Z,17.92
2023-05-16T17:17:25.234Z,17.89
2023-05-16T17:19:52.317Z,17.85
2023-05-16T17:22:19.102Z,17.81
2023-05-16T17:24:45.992Z,17.76
2023-05-16T17:27:13.555Z,17.71
2023-05-16T17:29:40.204Z,17.67
2023-05-16T17:32:07.229Z,17.63
2023-05-16T17:34:33.987Z,17.58
2023-05-16T17:37:00.693Z,17.54
2023-05-16T17:39:27.636Z,17.50
2023-05-16T17:41:55.198Z,17.45
2023-05-16T17:44:21.871Z,17.39
2023-05-16T17:46:49.036Z,17.34
2023-05-16T17:49:16.062Z,17.29
2023-05-16T17:51:46.646Z,17.24
2023-05-16T17:54:13.733Z,17.19
2023-05-16T17:56:40.425Z,17.14
2023-05-16T17:59:07.315Z,17.09
2023-05-16T18:01:34.177Z,17.04
2023-05-16T18:04:01.369Z,16.98
2023-05-16T18:06:28.358Z,16.92
2023-05-16T18:08:55.072Z,16.88
2023-05-16T18:11:22.405Z,16.83
2023-05-16T18:13:49.218Z,16.79
2023-05-16T18:16:16.174Z,16.76
2023-05-16T18:18:43.047Z,16.72
2023-05-16T18:21:10.046Z,16.67
2023-05-16T18:23:37.024Z,16.63
2023-05-16T18:26:03.824Z,16.59
2023-05-16T18:28:30.834Z,16.55
2023-05-16T18:30:57.642Z,16.51
2023-05-16T18:33:24.349Z,16.48
2023-05-16T18:35:51.300Z,16.44
2023-05-16T18:38:31.170Z,16.40
2023-05-16T18:40:59.397Z,16.36
2023-05-16T18:43:26.314Z,16.32
2023-05-16T18:45:53.002Z,16.28
2023-05-16T18:48:20.075Z,16.25
2023-05-16T18:50:47.258Z,16.23
2023-05-16T18:55:53.044Z,16.18
2023-05-16T18:58:20.048Z,16.14
2023-05-16T19:00:49.528Z,16.11
2023-05-16T19:03:17.376Z,16.09
2023-05-16T19:05:44.941Z,16.06
2023-05-16T19:08:12.099Z,16.03
2023-05-16T19:10:41.543Z,16.00
2023-05-16T19:13:08.904Z,15.97
2023-05-16T19:15:35.956Z,15.96
2023-05-16T19:18:04.965Z,15.94
2023-05-16T19:20:33.178Z,15.92
2023-05-16T19:23:00.114Z,15.91
2023-05-16T19:25:27.114Z,15.89
2023-05-16T19:27:54.276Z,15.87
2023-05-16T19:30:21.270Z,15.85
2023-05-16T19:32:48.002Z,15.83
2023-05-16T19:35:14.855Z,15.82
2023-05-16T19:37:41.602Z,15.81
2023-05-16T19:40:08.742Z,15.79
2023-05-16T19:42:35.676Z,15.77
2023-05-16T19:45:02.386Z,15.76
2023-05-16T19:47:29.166Z,15.74
2023-05-16T19:49:56.087Z,15.74
2023-05-16T19:52:22.822Z,15.73
2023-05-16T19:54:49.568Z,15.72
2023-05-16T19:57:16.813Z,15.71
2023-05-16T19:59:43.498Z,15.69
2023-05-16T20:02:10.285Z,15.67
2023-05-16T20:04:37.342Z,15.64
2023-05-16T20:07:04.072Z,15.61
2023-05-16T20:09:31.279Z,15.59
2023-05-16T20:11:58.875Z,15.56
2023-05-16T20:14:25.863Z,15.54
2023-05-16T20:16:53.042Z,15.52
2023-05-16T20:19:20.002Z,15.48
2023-05-16T20:21:46.801Z,15.45
2023-05-16T20:24:14.477Z,15.42
2023-05-16T20:26:41.510Z,15.39
2023-05-16T20:29:08.312Z,15.36
2023-05-16T20:31:35.083Z,15.32
2023-05-16T20:34:01.938Z,15.30
2023-05-16T20:36:28.719Z,15.26
2023-05-16T20:38:55.517Z,15.23
2023-05-16T20:41:22.480Z,15.20
2023-05-16T20:43:50.617Z,15.17
2023-05-16T20:46:17.329Z,15.14
2023-05-16T20:48:44.149Z,15.11
2023-05-16T20:51:10.865Z,15.07
2023-05-16T20:53:37.581Z,15.04
2023-05-16T20:56:04.634Z,15.01
2023-05-16T20:58:31.292Z,14.98
2023-05-16T21:00:58.470Z,14.96
2023-05-16T21:03:25.310Z,14.93
2023-05-16T21:05:52.204Z,14.91
2023-05-16T21:08:19.118Z,14.88
2023-05-16T21:10:46.043Z,14.86
2023-05-16T21:13:12.697Z,14.85
2023-05-16T21:15:39.694Z,14.84
2023-05-16T21:18:06.748Z,14.82
2023-05-16T21:20:33.562Z,14.81
2023-05-16T21:23:00.374Z,14.80
2023-05-16T21:25:28.868Z,14.79
2023-05-16T21:27:56.272Z,14.77
2023-05-16T21:30:22.992Z,14.75
2023-05-16T21:32:49.773Z,14.73
2023-05-16T21:35:16.581Z,14.71
2023-05-16T21:37:43.262Z,14.68
2023-05-16T21:40:10.615Z,14.67
2023-05-16T21:42:37.294Z,14.65
2023-05-16T21:45:04.499Z,14.64
2023-05-16T21:47:31.383Z,14.63
2023-05-16T21:49:58.228Z,14.61
2023-05-16T21:52:25.896Z,14.60
2023-05-16T21:54:52.920Z,14.59
2023-05-16T21:57:19.892Z,14.59
2023-05-16T21:59:46.623Z,14.58
2023-05-16T22:02:13.514Z,14.57
2023-05-16T22:04:40.592Z,14.55
2023-05-16T22:07:07.436Z,14.54
2023-05-16T22:09:34.258Z,14.52
2023-05-16T22:12:00.975Z,14.50
2023-05-16T22:14:27.683Z,14.49
2023-05-16T22:16:54.595Z,14.48
2023-05-16T22:19:21.366Z,14.48
2023-05-16T22:21:48.059Z,14.49
2023-05-16T22:24:14.930Z,14.49
2023-05-16T22:26:41.777Z,14.51
2023-05-16T22:29:08.637Z,14.52
2023-05-16T22:31:35.563Z,14.53
2023-05-16T22:34:03.076Z,14.54
2023-05-16T22:36:29.811Z,14.55
2023-05-16T22:38:56.505Z,14.56
2023-05-16T22:41:23.222Z,14.56
2023-05-16T22:43:49.884Z,14.58
2023-05-16T22:46:16.572Z,14.59
2023-05-16T22:48:43.346Z,14.60
2023-05-16T22:51:10.137Z,14.61
2023-05-16T22:53:37.102Z,14.60
2023-05-16T22:56:04.214Z,14.60
2023-05-16T22:58:30.951Z,14.59
2023-05-16T23:00:58.122Z,14.58
2023-05-16T23:03:24.948Z,14.57
2023-05-16T23:05:51.654Z,14.57
2023-05-16T23:08:18.348Z,14.56
2023-05-16T23:10:45.113Z,14.57
2023-05-16T23:13:11.796Z,14.57
2023-05-16T23:15:38.559Z,14.57
2023-05-16T23:18:06.097Z,14.58
2023-05-16T23:20:32.904Z,14.59
2023-05-16T23:22:59.983Z,14.60
2023-05-16T23:25:26.950Z,14.60
2023-05-16T23:27:58.062Z,14.61
2023-05-16T23:30:25.038Z,14.62
2023-05-16T23:32:51.989Z,14.64
2023-05-16T23:35:18.790Z,14.66
2023-05-16T23:37:45.577Z,14.68
2023-05-16T23:40:12.583Z,14.71
2023-05-16T23:42:41.222Z,14.74
2023-05-16T23:45:08.471Z,14.77
2023-05-16T23:47:35.280Z,14.78
2023-05-16T23:50:03.498Z,14.78
2023-05-16T23:52:30.902Z,14.78
2023-05-16T23:54:57.681Z,14.79
2023-05-16T23:57:24.357Z,14.79
2023-05-16T23:59:51.188Z,14.78
